Jose de San Martin, Argentina
Current Conditions -  °F | °C
As of 5:00 PM on Saturday 20 Dec 2014 (Local Time) from SCAP Reporting Station
Few Clouds Few Clouds  
Wind Chill: 12°   Ceiling: Unl
Heat Index: 12°   Visibility: NA
Dew Point:   Wind: 13mph
Humidity: 51%   Direction: 250°WSW
Pressure: 30.03"   Gusts: NA
Location:  44.03°S, 70.48°W
Report Text: SCAP 202000Z AUTO 25011KT 210V280 //// // FEW033 12/02 Q1017
Loading
Personal Weather Stations






























Interactive Weather Map New forecast layout! Learn more

10-Day Weather Forecast

Advertisements
Track Severe Weather on mobile